createdAt,value
2023-05-30T05:54:36.471Z,19.40
2023-05-30T05:59:31.206Z,20.30
2023-05-30T06:01:58.396Z,20.40
2023-05-30T06:04:25.695Z,20.00
2023-05-30T06:06:53.306Z,20.50
2023-05-30T06:09:20.580Z,21.40
2023-05-30T06:11:49.606Z,21.40
2023-05-30T06:14:16.922Z,22.10
2023-05-30T06:16:44.185Z,21.30
2023-05-30T06:19:11.385Z,21.60
2023-05-30T06:21:38.800Z,21.70
2023-05-30T06:24:07.647Z,22.40
2023-05-30T06:26:37.608Z,21.20
2023-05-30T06:29:04.924Z,21.40
2023-05-30T06:31:32.167Z,21.10
2023-05-30T06:33:59.358Z,21.00
2023-05-30T06:36:26.871Z,21.40
2023-05-30T06:38:54.289Z,21.60
2023-05-30T06:41:21.440Z,22.00
2023-05-30T06:43:48.874Z,22.30
2023-05-30T06:46:16.406Z,22.30
2023-05-30T06:48:43.722Z,22.20
2023-05-30T06:51:12.563Z,21.60
2023-05-30T06:53:40.966Z,22.10
2023-05-30T06:56:08.247Z,21.90
2023-05-30T07:01:03.363Z,21.80
2023-05-30T07:03:30.669Z,22.30
2023-05-30T07:05:57.855Z,22.80
2023-05-30T07:10:52.667Z,22.50
2023-05-30T07:13:20.139Z,22.20
2023-05-30T07:15:48.149Z,22.30
2023-05-30T07:18:15.466Z,21.80
2023-05-30T07:20:42.782Z,22.10
2023-05-30T07:23:10.016Z,22.40
2023-05-30T07:25:37.324Z,23.30
2023-05-30T07:28:06.822Z,23.30
2023-05-30T07:30:33.984Z,22.80
2023-05-30T07:33:01.209Z,23.60
2023-05-30T07:37:56.022Z,23.90
2023-05-30T07:45:20.722Z,24.60
2023-05-30T07:47:47.905Z,26.00
2023-05-30T07:50:16.065Z,25.60
2023-05-30T07:55:10.748Z,25.90
2023-05-30T08:00:09.524Z,26.60
2023-05-30T08:05:04.672Z,27.50
2023-05-30T08:07:34.708Z,27.90
2023-05-30T08:10:02.043Z,28.00
2023-05-30T08:12:32.154Z,28.00
2023-05-30T08:14:59.606Z,29.30
2023-05-30T08:17:28.547Z,28.80
2023-05-30T08:19:57.019Z,28.30
2023-05-30T08:22:25.318Z,28.60
2023-05-30T08:24:55.716Z,28.40
2023-05-30T08:27:24.469Z,28.30
2023-05-30T08:29:51.737Z,28.60
2023-05-30T08:32:19.652Z,29.10
2023-05-30T08:34:47.498Z,29.20
2023-05-30T08:37:14.757Z,29.00
2023-05-30T08:39:42.020Z,29.50
2023-05-30T08:42:10.064Z,29.70
2023-05-30T08:44:37.414Z,29.30
2023-05-30T08:47:09.116Z,29.00
2023-05-30T08:49:41.410Z,28.90
2023-05-30T08:52:10.110Z,28.30
2023-05-30T08:55:01.165Z,28.70
2023-05-30T08:57:35.414Z,28.90
2023-05-30T09:00:06.338Z,28.60
2023-05-30T09:02:35.483Z,27.30
2023-05-30T09:05:04.798Z,30.30
2023-05-30T09:07:32.670Z,28.80
2023-05-30T09:10:00.856Z,29.10
2023-05-30T09:12:28.175Z,29.00
2023-05-30T09:14:55.867Z,28.50
2023-05-30T09:17:23.566Z,28.90
2023-05-30T09:19:51.293Z,29.60
2023-05-30T09:22:18.844Z,30.30
2023-05-30T09:25:03.369Z,29.50
2023-05-30T09:27:35.790Z,29.60
2023-05-30T09:30:10.766Z,29.30
2023-05-30T09:32:40.921Z,29.10
2023-05-30T09:35:13.524Z,28.80
2023-05-30T09:37:47.228Z,29.30
2023-05-30T09:42:48.517Z,29.10
2023-05-30T09:45:24.827Z,28.90
2023-05-30T09:47:53.758Z,29.00
2023-05-30T09:50:25.281Z,31.40
2023-05-30T09:52:53.443Z,29.60
2023-05-30T09:57:53.052Z,29.00
2023-05-30T10:00:30.399Z,29.30
2023-05-30T10:02:59.123Z,29.50
2023-05-30T10:05:28.622Z,28.00
2023-05-30T10:07:57.192Z,28.90
2023-05-30T10:12:56.865Z,27.50
2023-05-30T10:15:26.946Z,27.30
2023-05-30T10:18:06.280Z,27.50
2023-05-30T10:20:39.281Z,27.20
2023-05-30T10:23:08.441Z,27.10
2023-05-30T10:25:38.317Z,27.10
2023-05-30T10:28:07.819Z,26.50
2023-05-30T10:30:35.240Z,26.40
2023-05-30T10:33:13.139Z,26.70
2023-05-30T10:35:40.738Z,26.70
2023-05-30T10:38:12.288Z,27.10
2023-05-30T10:41:03.963Z,28.30
2023-05-30T10:43:37.959Z,27.20
2023-05-30T10:46:24.342Z,27.00
2023-05-30T10:49:09.819Z,26.80
2023-05-30T10:51:59.566Z,26.50
2023-05-30T10:54:31.284Z,26.70
2023-05-30T10:57:29.944Z,26.80
2023-05-30T11:00:17.180Z,26.70
2023-05-30T11:02:50.913Z,27.50
2023-05-30T11:05:26.762Z,27.40
2023-05-30T11:07:54.183Z,27.70
2023-05-30T11:10:29.624Z,27.60
2023-05-30T11:13:11.682Z,27.90
2023-05-30T11:15:46.886Z,28.10
2023-05-30T11:18:19.074Z,26.70
2023-05-30T11:20:56.366Z,26.60
2023-05-30T11:23:25.735Z,26.80
2023-05-30T11:25:55.211Z,27.40
2023-05-30T11:28:36.847Z,26.70
2023-05-30T11:31:18.444Z,27.10
2023-05-30T11:33:52.645Z,27.10
2023-05-30T11:36:21.224Z,27.10
2023-05-30T11:38:48.992Z,27.20
2023-05-30T11:41:16.884Z,26.90
2023-05-30T11:43:45.476Z,25.40
2023-05-30T11:48:44.776Z,25.10
2023-05-30T11:51:12.245Z,24.90
2023-05-30T11:53:40.595Z,23.80
2023-05-30T11:56:09.988Z,24.20
2023-05-30T11:58:37.334Z,23.30
2023-05-30T12:01:06.125Z,24.20
2023-05-30T12:03:33.961Z,24.40
2023-05-30T12:06:12.723Z,23.40
2023-05-30T12:08:44.910Z,24.10
2023-05-30T12:11:15.839Z,24.50
2023-05-30T12:13:43.929Z,23.70
2023-05-30T12:16:12.418Z,23.60
2023-05-30T12:18:41.010Z,23.40
2023-05-30T12:21:12.818Z,23.70
2023-05-30T12:23:41.240Z,23.30
2023-05-30T12:26:08.510Z,23.90
2023-05-30T12:28:36.476Z,22.90
2023-05-30T12:31:04.018Z,23.30
2023-05-30T12:33:31.874Z,23.10
2023-05-30T12:35:59.054Z,23.70
2023-05-30T12:38:26.500Z,23.20
2023-05-30T12:40:53.893Z,23.90
2023-05-30T12:43:28.928Z,23.60
2023-05-30T12:46:00.863Z,23.50
2023-05-30T12:48:28.556Z,24.10
2023-05-30T12:50:55.893Z,23.90
2023-05-30T12:53:23.083Z,25.40
2023-05-30T12:55:50.588Z,23.60
2023-05-30T13:00:45.441Z,23.20
2023-05-30T13:03:13.060Z,22.90
2023-05-30T13:05:42.736Z,23.00
2023-05-30T13:08:11.229Z,23.20
2023-05-30T13:10:38.703Z,23.30
2023-05-30T13:13:07.577Z,23.10
2023-05-30T13:15:34.729Z,23.10
2023-05-30T13:18:01.980Z,22.90
2023-05-30T13:20:29.269Z,23.10
2023-05-30T13:22:56.700Z,23.10
2023-05-30T13:25:23.958Z,22.90
2023-05-30T13:27:51.824Z,23.20
2023-05-30T13:30:19.149Z,22.40
2023-05-30T13:32:47.473Z,22.40
2023-05-30T13:35:14.696Z,22.70
2023-05-30T13:37:41.859Z,22.90
2023-05-30T13:40:11.000Z,22.90
2023-05-30T13:42:39.617Z,22.90
2023-05-30T13:45:07.541Z,22.50
2023-05-30T13:47:35.792Z,23.20
2023-05-30T13:50:05.546Z,22.30
2023-05-30T13:52:33.208Z,22.90
2023-05-30T13:55:00.477Z,22.50
2023-05-30T13:57:27.671Z,22.00
2023-05-30T13:59:54.864Z,23.10
2023-05-30T14:02:22.734Z,23.00
2023-05-30T14:04:50.163Z,23.10
2023-05-30T14:07:17.373Z,22.90
2023-05-30T14:09:45.050Z,23.10
2023-05-30T14:12:12.253Z,22.60
2023-05-30T14:14:39.561Z,23.10
2023-05-30T14:17:09.257Z,22.80
2023-05-30T14:19:37.542Z,22.80
2023-05-30T14:22:07.306Z,22.60
2023-05-30T14:24:34.596Z,22.90
2023-05-30T14:27:01.829Z,24.00
2023-05-30T14:29:29.354Z,22.50
2023-05-30T14:31:58.722Z,22.40
2023-05-30T14:34:26.359Z,21.80
2023-05-30T14:36:53.547Z,22.50
2023-05-30T14:39:20.699Z,22.60
2023-05-30T14:44:15.865Z,23.40
2023-05-30T14:46:43.392Z,22.60
2023-05-30T14:49:10.586Z,22.60
2023-05-30T14:56:33.708Z,22.40
2023-05-30T14:59:01.170Z,22.20
2023-05-30T15:11:35.661Z,22.60
2023-05-30T15:14:02.867Z,22.50
2023-05-30T15:16:31.218Z,22.80
2023-05-30T15:18:58.670Z,23.80
2023-05-30T15:21:26.373Z,22.60
2023-05-30T15:23:54.653Z,22.40
2023-05-30T15:26:21.897Z,22.40
2023-05-30T15:28:49.103Z,23.80
2023-05-30T15:31:20.293Z,22.40
2023-05-30T15:36:15.651Z,22.40
2023-05-30T15:38:42.996Z,22.80
2023-05-30T15:41:10.155Z,22.30
2023-05-30T15:48:33.767Z,22.20
2023-05-30T15:51:01.205Z,21.80
2023-05-30T15:53:28.978Z,22.10
